Aérodrome :
LOGIN :

S'inscrire | Disclaimer

   EN    FR    IT 

 










Légende :    VFR   VFR Marginal   IFR   IFR Intensif   IFR Très Intensif
Visi : 
Plafond : 
>= 8 km
>= 3000ft
5 à 8 km
1000 à 3000 ft
1500m à 5 km
500 à 1000 ft
800 à 1500m
200 à 500 ft
< 800m
< 200 ft
Symboles :   Orages  Brouillard  Fortes neiges  Fortes précipitations  Vent > 20 kt
SIGMETs :   Divers  Orages  Givrage  Turbulence  Onde Orograph.  Cendres Volcan.






- Altitude de l'aérodrome : 776 ft
- Code IATA : RMS


ETAR - Ramstein Air Base

DERNIER METAR :
  • 160156Z AUTO 00000KT 9999 FEW040 M03/M03 A3035 RMK AO2 SLP296 T10351035 FZRANO $

METARs EXPIRÉS :
  • 160056Z 00000KT 9999 BKN039 OVC050 M01/M01 A3034 RMK AO2A SLP292 T10141014 FZRANO $
  • 160040Z 00000KT 9999 OVC039 M01/M01 A3034 RMK AO2A SLP292 FZRANO $
  • 152356Z AUTO 00000KT 9999 OVC040 00/00 A3036 RMK AO2 SLP297 T10041005 10004 21013 50003 FZRANO $
  • 152256Z AUTO 00000KT 9999 OVC049 M01/M01 A3036 RMK AO2 SLP299 T10101010 400221050 FZRANO $

TAF TAF ETAR
Valide du 15 à 18h jusqu'au 17 à 00h UTC


151800Z 1518/1624 06009KT 9999 BKN050 QNH3032INS
BECMG 1602/1603 VRB06KT 6000 BR SCT030 QNH3026INS
BECMG 1611/1612 23012KT 9999 NSW SCT015 BKN030 QNH3007INS
BECMG 1621/1622 20009KT 6000 -SN OVC015 620158 QNH3000INS TX00/1518Z TNM08/1603Z



MET'MAP, la Météo Aéronautique d'un coup d'oeil ! - Copyright ORBIFLY Décembre 2007 - Disclaimer

ORBIFLY MET'MAP TEAM :

Programmation & Développement : Alexandra Zaïnal
Sur une idée originale de : Baudouin d'Aumeries
Assistance à la programmation : Marc-Olivier Méhu
Soutien technique & logistique : Manuel Goepfert

Contact : metmap@orbifly.com




SOURCES & CREDITS :

   NOAA